createdAt,value
2017-07-24T00:01:10.806Z,80.30
2017-07-24T00:03:39.782Z,80.40
2017-07-24T00:06:09.547Z,80.20
2017-07-24T00:08:38.517Z,80.10
2017-07-24T00:11:07.475Z,79.80
2017-07-24T00:13:36.545Z,80.40
2017-07-24T00:16:05.496Z,80.50
2017-07-24T00:18:34.633Z,80.40
2017-07-24T00:21:03.577Z,80.00
2017-07-24T00:23:32.506Z,79.90
2017-07-24T00:26:01.474Z,79.70
2017-07-24T00:28:30.526Z,79.40
2017-07-24T00:31:00.252Z,79.80
2017-07-24T00:33:29.253Z,79.70
2017-07-24T00:35:58.183Z,79.90
2017-07-24T00:38:28.265Z,80.20
2017-07-24T00:40:57.217Z,80.10
2017-07-24T00:43:26.176Z,80.00
2017-07-24T00:45:55.156Z,79.70
2017-07-24T00:48:24.180Z,79.60
2017-07-24T00:50:54.803Z,79.80
2017-07-24T00:53:23.824Z,80.40
2017-07-24T00:55:52.895Z,80.40
2017-07-24T00:58:21.878Z,80.40
2017-07-24T01:00:51.116Z,80.10
2017-07-24T01:03:20.862Z,80.70
2017-07-24T01:05:49.837Z,80.70
2017-07-24T01:08:18.854Z,81.20
2017-07-24T01:10:47.796Z,80.80
2017-07-24T01:13:17.534Z,80.30
2017-07-24T01:15:46.497Z,80.30
2017-07-24T01:18:15.481Z,80.00
2017-07-24T01:20:44.429Z,80.50
2017-07-24T01:23:13.393Z,80.60
2017-07-24T01:25:42.340Z,80.50
2017-07-24T01:28:11.461Z,80.10
2017-07-24T01:30:40.465Z,80.50
2017-07-24T01:33:09.460Z,80.40
2017-07-24T01:35:39.257Z,80.50
2017-07-24T01:38:08.276Z,80.50
2017-07-24T01:40:37.211Z,80.70
2017-07-24T01:43:06.213Z,80.80
2017-07-24T01:45:35.152Z,80.80
2017-07-24T01:48:04.123Z,80.30
2017-07-24T01:50:33.851Z,81.10
2017-07-24T01:53:02.819Z,81.10
2017-07-24T01:55:32.541Z,81.00
2017-07-24T01:58:01.618Z,81.00
2017-07-24T02:00:30.540Z,80.80
2017-07-24T02:02:59.526Z,80.40
2017-07-24T02:05:28.557Z,80.50
2017-07-24T02:07:57.565Z,80.60
2017-07-24T02:10:26.524Z,81.00
2017-07-24T02:12:55.494Z,80.90
2017-07-24T02:15:24.478Z,81.20
2017-07-24T02:17:54.209Z,80.50
2017-07-24T02:20:23.167Z,80.50
2017-07-24T02:22:52.145Z,80.30
2017-07-24T02:25:21.166Z,80.50
2017-07-24T02:27:50.120Z,80.70
2017-07-24T02:30:19.406Z,80.50
2017-07-24T02:32:48.390Z,80.40
2017-07-24T02:35:17.367Z,81.20
2017-07-24T02:37:46.320Z,81.40
2017-07-24T02:40:15.307Z,81.10
2017-07-24T02:42:45.021Z,80.90
2017-07-24T02:45:14.768Z,80.40
2017-07-24T02:47:43.721Z,80.40
2017-07-24T02:50:12.674Z,80.60
2017-07-24T02:52:41.660Z,80.50
2017-07-24T02:55:10.619Z,80.40
2017-07-24T02:57:39.570Z,80.80
2017-07-24T03:00:08.527Z,80.30
2017-07-24T03:02:37.487Z,80.80
2017-07-24T03:05:06.481Z,80.80
2017-07-24T03:07:35.431Z,80.90
2017-07-24T03:10:04.390Z,80.50
2017-07-24T03:12:33.357Z,80.20
2017-07-24T03:15:02.301Z,81.00
2017-07-24T03:17:31.269Z,80.70
2017-07-24T03:20:00.224Z,80.60
2017-07-24T03:22:29.197Z,80.80
2017-07-24T03:24:58.141Z,80.80
2017-07-24T03:27:27.123Z,81.70
2017-07-24T03:29:56.083Z,81.50
2017-07-24T03:32:25.829Z,81.80
2017-07-24T03:34:54.906Z,81.80
2017-07-24T03:37:23.929Z,82.20
2017-07-24T03:39:52.900Z,80.90
2017-07-24T03:42:21.963Z,80.50
2017-07-24T03:44:51.714Z,81.30
2017-07-24T03:47:20.696Z,81.30
2017-07-24T03:49:49.673Z,82.30
2017-07-24T03:52:18.637Z,82.50
2017-07-24T03:54:47.584Z,82.80
2017-07-24T03:57:16.611Z,83.50
2017-07-24T03:59:45.579Z,83.00
2017-07-24T04:02:14.560Z,82.90
2017-07-24T04:04:43.519Z,82.90
2017-07-24T04:07:13.264Z,82.50
2017-07-24T04:09:42.237Z,82.50
2017-07-24T04:12:11.209Z,81.80
2017-07-24T04:14:40.184Z,82.00
2017-07-24T04:17:09.940Z,82.40
2017-07-24T04:19:38.908Z,82.40
2017-07-24T04:22:07.909Z,82.30
2017-07-24T04:24:36.858Z,82.10
2017-07-24T04:27:05.833Z,82.70
2017-07-24T04:29:34.810Z,82.70
2017-07-24T04:32:03.782Z,83.20
2017-07-24T04:34:32.759Z,83.10
2017-07-24T04:37:01.717Z,82.40
2017-07-24T04:39:30.687Z,81.90
2017-07-24T04:41:59.646Z,81.50
2017-07-24T04:44:28.649Z,81.30
2017-07-24T04:46:57.668Z,81.80
2017-07-24T04:49:26.649Z,82.20
2017-07-24T04:51:55.634Z,83.30
2017-07-24T04:54:24.643Z,83.90
2017-07-24T04:56:53.658Z,83.80
2017-07-24T04:59:22.612Z,84.30
2017-07-24T05:01:51.601Z,84.20
2017-07-24T05:04:20.607Z,84.40
2017-07-24T05:06:49.645Z,84.20
2017-07-24T05:09:19.382Z,83.80
2017-07-24T05:11:48.348Z,83.80
2017-07-24T05:14:18.146Z,84.20
2017-07-24T05:16:47.860Z,83.30
2017-07-24T05:19:17.610Z,84.70
2017-07-24T05:21:46.608Z,84.70
2017-07-24T05:24:15.663Z,84.10
2017-07-24T05:26:45.390Z,85.80
2017-07-24T05:29:14.380Z,85.80
2017-07-24T05:31:43.359Z,85.80
2017-07-24T05:34:13.225Z,86.20
2017-07-24T05:36:42.176Z,86.10
2017-07-24T05:39:11.175Z,85.70
2017-07-24T05:41:40.168Z,85.40
2017-07-24T05:44:09.153Z,86.60
2017-07-24T05:46:38.114Z,86.60
2017-07-24T05:49:07.105Z,87.00
2017-07-24T05:51:36.102Z,86.20
2017-07-24T05:54:05.057Z,86.80
2017-07-24T05:56:34.043Z,86.00
2017-07-24T05:59:03.026Z,85.40
2017-07-24T06:01:32.104Z,84.50
2017-07-24T06:04:01.093Z,84.70
2017-07-24T06:06:30.071Z,85.10
2017-07-24T06:08:59.858Z,83.60
2017-07-24T06:11:28.874Z,83.50
2017-07-24T06:13:58.611Z,82.80
2017-07-24T06:16:27.570Z,82.70
2017-07-24T06:18:57.377Z,83.20
2017-07-24T06:21:26.354Z,83.10
2017-07-24T06:23:55.349Z,83.10
2017-07-24T06:26:24.308Z,82.00
2017-07-24T06:28:53.287Z,83.10
2017-07-24T06:31:22.244Z,82.30
2017-07-24T06:33:51.998Z,82.20
2017-07-24T06:36:20.992Z,82.20
2017-07-24T06:38:49.965Z,82.60
2017-07-24T06:41:18.925Z,82.90
2017-07-24T06:43:48.672Z,82.70
2017-07-24T06:46:17.635Z,82.50
2017-07-24T06:48:47.387Z,82.10
2017-07-24T06:51:16.437Z,82.10
2017-07-24T06:53:45.459Z,81.80
2017-07-24T06:56:14.572Z,81.10
2017-07-24T06:58:43.583Z,81.70
2017-07-24T07:01:12.694Z,81.80
2017-07-24T07:03:41.659Z,83.00
2017-07-24T07:06:10.653Z,82.90
2017-07-24T07:08:39.633Z,82.80
2017-07-24T07:11:08.684Z,81.50
2017-07-24T07:13:37.632Z,82.10
2017-07-24T07:16:06.628Z,82.40
2017-07-24T07:18:35.659Z,82.30
2017-07-24T07:21:04.885Z,81.80
2017-07-24T07:23:33.883Z,82.60
2017-07-24T07:26:02.851Z,82.60
2017-07-24T07:28:31.828Z,81.50
2017-07-24T07:31:01.703Z,80.90
2017-07-24T07:33:30.666Z,81.00
2017-07-24T07:35:59.626Z,81.10
2017-07-24T07:38:29.551Z,81.50
2017-07-24T07:40:59.374Z,81.40
2017-07-24T07:43:28.319Z,81.20
2017-07-24T07:45:57.344Z,79.20
2017-07-24T07:48:26.327Z,78.30
2017-07-24T07:50:56.145Z,82.20
2017-07-24T07:53:25.096Z,81.40
2017-07-24T07:55:56.934Z,81.30
2017-07-24T07:58:25.901Z,82.10
2017-07-24T08:00:54.871Z,81.40
2017-07-24T08:03:24.691Z,79.40
2017-07-24T08:06:00.716Z,80.20
2017-07-24T08:08:29.462Z,80.20
2017-07-24T08:10:58.441Z,81.60
2017-07-24T08:13:27.421Z,81.20
2017-07-24T08:15:57.199Z,82.90
2017-07-24T08:18:26.545Z,82.90
2017-07-24T08:20:55.516Z,81.20
2017-07-24T08:23:25.231Z,82.80
2017-07-24T08:25:54.245Z,82.70
2017-07-24T08:28:23.301Z,80.60
2017-07-24T08:30:52.285Z,80.70
2017-07-24T08:33:21.250Z,81.80
2017-07-24T08:35:50.435Z,81.70
2017-07-24T08:38:19.414Z,82.00
2017-07-24T08:40:48.396Z,80.70
2017-07-24T08:43:17.365Z,80.20
2017-07-24T08:45:46.382Z,80.70
2017-07-24T08:48:15.365Z,80.90
2017-07-24T08:50:45.126Z,81.00
2017-07-24T08:53:14.078Z,81.00
2017-07-24T08:55:43.061Z,80.20
2017-07-24T08:58:12.012Z,81.20
2017-07-24T09:00:41.005Z,82.10
2017-07-24T09:03:10.015Z,81.50
2017-07-24T09:05:38.963Z,82.50
2017-07-24T09:08:07.946Z,81.40
2017-07-24T09:10:36.922Z,80.70
2017-07-24T09:13:05.933Z,79.30
2017-07-24T09:15:34.918Z,79.50
2017-07-24T09:18:03.906Z,77.90
2017-07-24T09:20:32.892Z,76.50
2017-07-24T09:23:01.888Z,78.50
2017-07-24T09:25:30.868Z,79.00
2017-07-24T09:28:00.662Z,77.50
2017-07-24T09:30:30.397Z,79.70
2017-07-24T09:32:59.390Z,78.90
2017-07-24T09:35:28.363Z,75.10
2017-07-24T09:37:58.120Z,77.80
2017-07-24T09:40:27.076Z,77.70
2017-07-24T09:42:56.079Z,79.60
2017-07-24T09:45:25.122Z,79.70
2017-07-24T09:47:54.966Z,77.20
2017-07-24T09:50:23.944Z,77.10
2017-07-24T09:52:52.916Z,78.40
2017-07-24T09:55:21.886Z,78.50
2017-07-24T09:57:50.859Z,80.10
2017-07-24T10:00:19.808Z,80.70
2017-07-24T10:02:48.814Z,79.70
2017-07-24T10:05:18.554Z,79.10
2017-07-24T10:07:47.538Z,79.10
2017-07-24T10:10:16.513Z,80.10
2017-07-24T10:12:46.654Z,83.40
2017-07-24T10:15:15.607Z,82.90
2017-07-24T10:17:44.587Z,83.30
2017-07-24T10:20:13.580Z,83.10
2017-07-24T10:22:42.553Z,82.40
2017-07-24T10:25:11.506Z,82.60
2017-07-24T10:27:40.483Z,82.70
2017-07-24T10:30:10.228Z,83.30
2017-07-24T10:32:39.293Z,83.30
2017-07-24T10:35:09.041Z,85.40
2017-07-24T10:37:38.004Z,85.40
2017-07-24T10:40:07.000Z,85.40
2017-07-24T10:42:35.970Z,86.00
2017-07-24T10:45:05.688Z,86.60
2017-07-24T10:47:34.674Z,86.60
2017-07-24T10:50:04.666Z,87.30
2017-07-24T10:52:33.632Z,87.30
2017-07-24T10:55:02.913Z,87.90
2017-07-24T10:57:31.911Z,86.50
2017-07-24T11:00:00.876Z,86.70
2017-07-24T11:02:29.834Z,87.00
2017-07-24T11:04:58.830Z,85.80
2017-07-24T11:07:27.879Z,84.40
2017-07-24T11:09:56.860Z,84.60
2017-07-24T11:12:25.836Z,84.70
2017-07-24T11:14:55.584Z,87.20
2017-07-24T11:17:24.546Z,87.20
2017-07-24T11:19:53.625Z,85.20
2017-07-24T11:22:22.600Z,85.80
2017-07-24T11:24:51.554Z,85.90
2017-07-24T11:27:20.549Z,85.20
2017-07-24T11:29:49.595Z,85.10
2017-07-24T11:32:19.412Z,80.30
2017-07-24T11:34:49.206Z,81.80
2017-07-24T11:37:18.289Z,81.80
2017-07-24T11:39:47.277Z,81.50
2017-07-24T11:42:16.338Z,79.60
2017-07-24T11:44:45.619Z,78.70
2017-07-24T11:47:14.644Z,80.60
2017-07-24T11:49:43.610Z,81.20
2017-07-24T11:52:12.620Z,80.60
2017-07-24T11:54:41.575Z,80.50
2017-07-24T11:57:11.320Z,79.60
2017-07-24T11:59:40.283Z,79.50
2017-07-24T12:02:09.282Z,78.10
2017-07-24T12:04:38.238Z,78.10
2017-07-24T12:07:07.267Z,75.30
2017-07-24T12:09:36.233Z,80.70
2017-07-24T12:12:05.192Z,80.00
2017-07-24T12:14:34.187Z,81.00
2017-07-24T12:17:03.136Z,80.00
2017-07-24T12:19:32.125Z,79.50
2017-07-24T12:22:01.085Z,80.60
2017-07-24T12:24:30.041Z,81.20
2017-07-24T12:26:59.081Z,83.80
2017-07-24T12:29:28.048Z,83.00
2017-07-24T12:31:57.070Z,83.80
2017-07-24T12:34:26.809Z,84.70
2017-07-24T12:36:55.762Z,84.10
2017-07-24T12:39:25.526Z,84.70
2017-07-24T12:41:54.766Z,83.80
2017-07-24T12:44:23.711Z,85.10
2017-07-24T12:46:52.716Z,84.70
2017-07-24T12:49:21.704Z,84.40
2017-07-24T12:51:50.868Z,85.00
2017-07-24T12:54:19.841Z,83.40
2017-07-24T12:56:48.814Z,81.80
2017-07-24T12:59:17.847Z,82.90
2017-07-24T13:01:46.818Z,84.30
2017-07-24T13:04:16.559Z,82.20
2017-07-24T13:06:45.570Z,82.20
2017-07-24T13:09:14.579Z,83.70
2017-07-24T13:11:43.609Z,84.80
2017-07-24T13:14:13.373Z,83.10
2017-07-24T13:16:42.770Z,83.10
2017-07-24T13:19:11.753Z,83.70
2017-07-24T13:21:40.742Z,84.20
2017-07-24T13:24:09.805Z,84.50
2017-07-24T13:26:39.550Z,83.80
2017-07-24T13:29:08.553Z,83.70
2017-07-24T13:31:37.501Z,83.70
2017-07-24T13:34:07.246Z,85.80
2017-07-24T13:36:36.272Z,85.70
2017-07-24T13:39:05.237Z,85.50
2017-07-24T13:41:34.224Z,85.80
2017-07-24T13:44:03.187Z,84.70
2017-07-24T13:46:32.264Z,84.70
2017-07-24T13:49:01.987Z,86.10
2017-07-24T13:51:30.998Z,86.00
2017-07-24T13:53:59.984Z,85.80
2017-07-24T13:56:28.957Z,85.40
2017-07-24T13:58:58.715Z,85.90
2017-07-24T14:01:27.688Z,86.60
2017-07-24T14:03:56.633Z,85.00
2017-07-24T14:06:25.758Z,85.40
2017-07-24T14:08:54.844Z,86.00
2017-07-24T14:11:24.595Z,84.40
2017-07-24T14:13:53.563Z,84.40
2017-07-24T14:16:22.618Z,85.50
2017-07-24T14:18:51.577Z,86.50
2017-07-24T14:21:20.615Z,86.30
2017-07-24T14:23:50.334Z,86.70
2017-07-24T14:26:19.350Z,86.60
2017-07-24T14:28:48.326Z,86.00
2017-07-24T14:31:17.315Z,85.30
2017-07-24T14:33:46.399Z,85.40
2017-07-24T14:36:16.152Z,85.80
2017-07-24T14:38:45.124Z,85.40
2017-07-24T14:41:14.201Z,85.70
2017-07-24T14:43:43.957Z,86.20
2017-07-24T14:46:12.949Z,86.20
2017-07-24T14:48:41.909Z,86.30
2017-07-24T14:51:10.892Z,85.90
2017-07-24T14:53:39.878Z,86.10
2017-07-24T14:56:09.609Z,84.90
2017-07-24T14:58:38.588Z,84.90
2017-07-24T15:01:07.582Z,84.50
2017-07-24T15:03:37.487Z,84.00
2017-07-24T15:06:06.801Z,84.00
2017-07-24T15:08:35.763Z,84.50
2017-07-24T15:11:04.715Z,85.20
2017-07-24T15:13:33.709Z,85.90
2017-07-24T15:16:02.678Z,85.10
2017-07-24T15:18:31.644Z,86.20
2017-07-24T15:21:00.863Z,85.70
2017-07-24T15:23:29.840Z,85.40
2017-07-24T15:25:58.817Z,85.10
2017-07-24T15:28:28.567Z,84.40
2017-07-24T15:30:57.536Z,84.90
2017-07-24T15:33:26.506Z,85.10
2017-07-24T15:35:56.253Z,85.30
2017-07-24T15:38:25.245Z,85.10
2017-07-24T15:40:54.230Z,85.80
2017-07-24T15:43:23.238Z,85.90
2017-07-24T15:45:52.190Z,85.10
2017-07-24T15:48:22.145Z,85.10
2017-07-24T15:50:51.097Z,85.10
2017-07-24T15:53:20.876Z,85.40
2017-07-24T15:55:49.934Z,85.40
2017-07-24T15:58:18.939Z,85.20
2017-07-24T16:00:47.893Z,85.80
2017-07-24T16:03:17.719Z,84.70
2017-07-24T16:05:46.672Z,84.70
2017-07-24T16:08:15.644Z,84.10
2017-07-24T16:10:46.257Z,85.10
2017-07-24T16:13:15.365Z,85.20
2017-07-24T16:15:44.367Z,85.40
2017-07-24T16:18:13.344Z,85.60
2017-07-24T16:20:42.353Z,85.00
2017-07-24T16:23:11.443Z,84.50
2017-07-24T16:25:40.402Z,84.70
2017-07-24T16:28:09.375Z,85.00
2017-07-24T16:30:38.359Z,84.90
2017-07-24T16:33:08.106Z,85.50
2017-07-24T16:35:37.065Z,85.30
2017-07-24T16:38:06.813Z,85.30
2017-07-24T16:40:35.964Z,85.30
2017-07-24T16:43:04.945Z,84.70
2017-07-24T16:45:33.954Z,84.60
2017-07-24T16:48:03.688Z,85.00
2017-07-24T16:50:32.648Z,85.00
2017-07-24T16:53:02.521Z,85.80
2017-07-24T16:55:31.490Z,85.80
2017-07-24T16:58:00.463Z,86.10
2017-07-24T17:00:29.480Z,86.10
2017-07-24T17:02:58.423Z,85.60
2017-07-24T17:05:28.173Z,85.90
2017-07-24T17:07:57.156Z,85.80
2017-07-24T17:10:26.112Z,85.70
2017-07-24T17:12:55.154Z,86.10
2017-07-24T17:15:24.137Z,85.40
2017-07-24T17:17:53.151Z,85.00
2017-07-24T17:20:22.120Z,85.00
2017-07-24T17:22:51.073Z,85.40
2017-07-24T17:25:20.089Z,86.30
2017-07-24T17:27:49.801Z,84.40
2017-07-24T17:30:18.797Z,84.40
2017-07-24T17:32:53.044Z,86.00
2017-07-24T17:35:23.069Z,86.30
2017-07-24T17:37:52.112Z,86.20
2017-07-24T17:40:21.836Z,84.80
2017-07-24T17:42:50.804Z,84.70
2017-07-24T17:45:19.796Z,85.50
2017-07-24T17:47:49.529Z,86.90
2017-07-24T17:50:18.534Z,86.10
2017-07-24T17:52:47.601Z,85.60
2017-07-24T17:55:17.361Z,85.60
2017-07-24T17:57:46.331Z,85.60
2017-07-24T18:00:15.297Z,86.40
2017-07-24T18:02:45.051Z,86.00
2017-07-24T18:05:14.173Z,85.90
2017-07-24T18:07:43.196Z,85.80
2017-07-24T18:10:12.919Z,85.90
2017-07-24T18:12:41.883Z,85.90
2017-07-24T18:15:11.006Z,85.50
2017-07-24T18:17:39.967Z,85.20
2017-07-24T18:20:08.943Z,85.30
2017-07-24T18:22:37.913Z,85.80
2017-07-24T18:25:06.888Z,85.40
2017-07-24T18:27:35.881Z,86.00
2017-07-24T18:30:04.843Z,86.20
2017-07-24T18:32:34.657Z,85.70
2017-07-24T18:35:04.465Z,85.70
2017-07-24T18:37:34.234Z,86.10
2017-07-24T18:40:03.216Z,86.10
2017-07-24T18:42:33.082Z,85.90
2017-07-24T18:45:02.851Z,86.50
2017-07-24T18:47:31.832Z,86.50
2017-07-24T18:50:00.834Z,86.60
2017-07-24T18:52:30.221Z,86.40
2017-07-24T18:54:59.199Z,86.50
2017-07-24T18:57:28.148Z,86.60
2017-07-24T18:59:57.147Z,87.10
2017-07-24T19:02:26.906Z,87.30
2017-07-24T19:04:55.904Z,86.90
2017-07-24T19:07:24.901Z,86.70
2017-07-24T19:09:53.887Z,87.10
2017-07-24T19:12:23.180Z,87.70
2017-07-24T19:14:52.147Z,87.60
2017-07-24T19:17:21.217Z,87.90
2017-07-24T19:19:50.185Z,88.10
2017-07-24T19:22:19.173Z,87.30
2017-07-24T19:24:48.174Z,87.60
2017-07-24T19:27:17.213Z,87.90
2017-07-24T19:29:46.548Z,87.70
2017-07-24T19:32:15.545Z,88.10
2017-07-24T19:34:44.559Z,87.50
2017-07-24T19:37:13.560Z,87.60
2017-07-24T19:39:42.550Z,87.70
2017-07-24T19:42:11.555Z,88.00
2017-07-24T19:44:40.969Z,87.70
2017-07-24T19:47:10.694Z,87.80
2017-07-24T19:49:39.710Z,87.70
2017-07-24T19:52:09.750Z,88.00
2017-07-24T19:54:41.224Z,87.80
2017-07-24T19:57:11.942Z,88.50
2017-07-24T19:59:40.925Z,88.50
2017-07-24T20:02:09.906Z,88.30
2017-07-24T20:04:38.915Z,88.50
2017-07-24T20:07:07.875Z,88.50
2017-07-24T20:09:37.926Z,88.50
2017-07-24T20:12:07.014Z,88.50
2017-07-24T20:14:36.028Z,87.70
2017-07-24T20:17:05.745Z,87.70
2017-07-24T20:19:35.513Z,87.90
2017-07-24T20:22:04.471Z,87.90
2017-07-24T20:24:33.485Z,87.90
2017-07-24T20:27:02.455Z,88.10
2017-07-24T20:29:31.409Z,88.30
2017-07-24T20:32:01.177Z,88.90
2017-07-24T20:34:30.143Z,88.00
2017-07-24T20:36:59.113Z,87.50
2017-07-24T20:39:28.881Z,87.70
2017-07-24T20:41:57.851Z,87.60
2017-07-24T20:44:26.826Z,88.00
2017-07-24T20:46:55.771Z,88.10
2017-07-24T20:49:24.770Z,88.20
2017-07-24T20:51:53.784Z,88.40
2017-07-24T20:54:23.533Z,88.30
2017-07-24T20:56:52.982Z,88.20
2017-07-24T20:59:21.990Z,87.80
2017-07-24T21:04:26.624Z,88.00
2017-07-24T21:06:56.076Z,87.50
2017-07-24T21:09:25.023Z,87.80
2017-07-24T21:11:54.455Z,87.90
2017-07-24T21:14:23.398Z,88.00
2017-07-24T21:16:52.362Z,87.40
2017-07-24T21:19:21.772Z,87.20
2017-07-24T21:21:50.750Z,87.70
2017-07-24T21:24:20.469Z,87.90
2017-07-24T21:26:49.454Z,88.30
2017-07-24T21:29:18.435Z,88.40
2017-07-24T21:31:47.425Z,88.10
2017-07-24T21:34:16.388Z,88.00
2017-07-24T21:36:45.374Z,88.10
2017-07-24T21:39:14.341Z,88.00
2017-07-24T21:41:43.357Z,88.50
2017-07-24T21:44:12.329Z,88.60
2017-07-24T21:46:41.345Z,89.00
2017-07-24T21:49:10.504Z,88.70
2017-07-24T21:51:40.416Z,88.90
2017-07-24T21:54:09.369Z,88.80
2017-07-24T21:56:38.327Z,88.90
2017-07-24T21:59:08.090Z,88.80
2017-07-24T22:01:37.085Z,88.80
2017-07-24T22:04:06.080Z,88.70
2017-07-24T22:06:35.068Z,89.00
2017-07-24T22:09:04.058Z,88.40
2017-07-24T22:11:33.304Z,88.70
2017-07-24T22:14:02.268Z,89.00
2017-07-24T22:16:31.235Z,89.10
2017-07-24T22:19:00.217Z,89.20
2017-07-24T22:21:29.264Z,88.80
2017-07-24T22:23:58.991Z,89.10
2017-07-24T22:26:27.990Z,89.40
2017-07-24T22:28:57.114Z,89.30
2017-07-24T22:31:26.100Z,89.30
2017-07-24T22:33:55.498Z,89.30
2017-07-24T22:36:24.468Z,89.10
2017-07-24T22:38:53.431Z,89.10
2017-07-24T22:41:23.210Z,89.90
2017-07-24T22:43:52.168Z,88.90
2017-07-24T22:46:21.140Z,89.30
2017-07-24T22:48:51.756Z,89.50
2017-07-24T22:51:20.719Z,89.00
2017-07-24T22:53:49.720Z,89.40
2017-07-24T22:56:18.674Z,89.20
2017-07-24T22:58:47.749Z,89.10
2017-07-24T23:01:17.477Z,89.60
2017-07-24T23:03:46.452Z,89.60
2017-07-24T23:06:16.181Z,89.60
2017-07-24T23:08:45.276Z,89.60
2017-07-24T23:11:14.320Z,89.10
2017-07-24T23:13:43.308Z,88.60
2017-07-24T23:16:13.813Z,88.60
2017-07-24T23:18:42.987Z,87.90
2017-07-24T23:21:11.956Z,87.80
2017-07-24T23:23:41.687Z,88.10
2017-07-24T23:26:10.651Z,87.90
2017-07-24T23:28:40.385Z,87.80
2017-07-24T23:31:10.740Z,88.20
2017-07-24T23:33:39.705Z,86.70
2017-07-24T23:36:08.661Z,86.00
2017-07-24T23:38:37.666Z,87.00
2017-07-24T23:41:07.380Z,87.40
2017-07-24T23:43:36.473Z,87.30
2017-07-24T23:46:06.219Z,87.60
2017-07-24T23:48:35.207Z,87.60
2017-07-24T23:51:04.173Z,87.60
2017-07-24T23:53:33.918Z,88.10
2017-07-24T23:56:02.892Z,87.90
2017-07-24T23:58:31.848Z,88.10
